Time;durP1;ratioP1;P1;durP2;ratioP2;P2;SDS_P1;SDS_P2;PMS_P1;PMS_P2;Temp;Humidity;BMP_temperature;BMP_pressure;BME280_temperature;BME280_humidity;BME280_pressure;Samples;Min_cycle;Max_cycle;Signal;HPM_P1;HPM_P2
2021/05/01 00:01:33;;;;;;;12.65;6.60;;;;;;;;;;5072538;28;20028;-70
2021/05/01 00:03:59;;;;;;;15.32;5.95;;;;;;;;;;5062246;28;20025;-71
2021/05/01 00:06:26;;;;;;;14.20;5.75;;;;;;;;;;5065982;28;20052;-70
2021/05/01 00:08:52;;;;;;;13.15;5.40;;;;;;;;;;5070174;28;20039;-71
2021/05/01 00:11:22;;;;;;;11.30;5.78;;;;;;;;;;5071908;28;20037;-71
2021/05/01 00:13:49;;;;;;;11.73;6.65;;;;;;;;;;5061258;28;20077;-70
2021/05/01 00:16:15;;;;;;;13.98;5.57;;;;;;;;;;5069577;28;20547;-70
2021/05/01 00:18:41;;;;;;;12.55;5.80;;;;;;;;;;5071066;28;20052;-70
2021/05/01 00:21:07;;;;;;;13.13;5.68;;;;;;;;;;5071170;28;20090;-70
2021/05/01 00:23:33;;;;;;;11.07;5.88;;;;;;;;;;5069916;28;20048;-70
2021/05/01 00:25:59;;;;;;;17.10;5.78;;;;;;;;;;5072185;28;20028;-70
2021/05/01 00:28:26;;;;;;;17.02;6.68;;;;;;;;;;5065798;28;20097;-71
2021/05/01 00:30:52;;;;;;;19.83;6.70;;;;;;;;;;5067578;28;20024;-71
2021/05/01 00:33:18;;;;;;;17.35;6.15;;;;;;;;;;5071512;28;20586;-71
2021/05/01 00:35:44;;;;;;;13.25;6.80;;;;;;;;;;5069898;28;20059;-71
2021/05/01 00:38:10;;;;;;;15.30;6.28;;;;;;;;;;5062770;28;20021;-71
2021/05/01 00:40:36;;;;;;;21.85;7.28;;;;;;;;;;5069255;28;20033;-70
2021/05/01 00:43:02;;;;;;;15.50;6.28;;;;;;;;;;5070720;28;20028;-71
2021/05/01 00:45:28;;;;;;;15.50;6.07;;;;;;;;;;5071129;28;20052;-71
2021/05/01 00:47:54;;;;;;;15.63;6.38;;;;;;;;;;5061654;28;20024;-71
2021/05/01 00:50:21;;;;;;;12.30;5.95;;;;;;;;;;5070283;28;20039;-70
2021/05/01 00:52:47;;;;;;;16.00;5.70;;;;;;;;;;5079628;28;20502;-71
2021/05/01 00:55:13;;;;;;;16.95;5.75;;;;;;;;;;5070843;28;20039;-70
2021/05/01 00:57:40;;;;;;;17.65;5.80;;;;;;;;;;5085284;28;20043;-71
2021/05/01 01:00:25;;;;;;;11.73;5.38;;;;;;;;;;5069740;28;20024;-71
2021/05/01 01:02:51;;;;;;;14.18;6.47;;;;;;;;;;5070871;28;20546;-71
2021/05/01 01:05:18;;;;;;;17.83;7.18;;;;;;;;;;5067884;28;20025;-71
2021/05/01 01:07:44;;;;;;;16.35;6.20;;;;;;;;;;5065562;28;20048;-71
2021/05/01 01:10:10;;;;;;;13.80;5.60;;;;;;;;;;5070058;28;20029;-71
2021/05/01 01:12:36;;;;;;;15.00;5.70;;;;;;;;;;5070556;28;20083;-71
2021/05/01 01:15:02;;;;;;;14.25;6.13;;;;;;;;;;5067928;28;20028;-70
2021/05/01 01:17:28;;;;;;;12.68;5.88;;;;;;;;;;5069645;28;20075;-71
2021/05/01 01:19:54;;;;;;;16.73;5.40;;;;;;;;;;5069684;28;20098;-71
2021/05/01 01:22:21;;;;;;;17.13;6.15;;;;;;;;;;5070480;28;20020;-71
2021/05/01 01:24:47;;;;;;;15.23;5.68;;;;;;;;;;5070300;28;20554;-71
2021/05/01 01:27:13;;;;;;;13.02;5.80;;;;;;;;;;5070919;28;20032;-71
2021/05/01 01:29:40;;;;;;;10.63;5.50;;;;;;;;;;5068541;28;20108;-70
2021/05/01 01:32:07;;;;;;;12.20;6.35;;;;;;;;;;5071074;28;20035;-71
2021/05/01 01:34:33;;;;;;;14.43;6.05;;;;;;;;;;5066114;28;20035;-70
2021/05/01 01:36:59;;;;;;;14.32;6.50;;;;;;;;;;5070643;28;20024;-71
2021/05/01 01:39:26;;;;;;;17.85;6.47;;;;;;;;;;5068792;28;20016;-71
2021/05/01 01:41:52;;;;;;;21.90;7.47;;;;;;;;;;5070677;28;20050;-71
2021/05/01 01:44:18;;;;;;;16.95;6.43;;;;;;;;;;5069729;28;20032;-71
2021/05/01 01:46:44;;;;;;;16.67;6.43;;;;;;;;;;5069708;28;20025;-71
2021/05/01 01:49:11;;;;;;;11.05;6.00;;;;;;;;;;5067374;28;20021;-71
2021/05/01 01:51:37;;;;;;;14.07;5.90;;;;;;;;;;5070499;28;20060;-70
2021/05/01 01:54:03;;;;;;;10.82;6.03;;;;;;;;;;5069680;28;20036;-71
2021/05/01 01:56:29;;;;;;;12.75;5.65;;;;;;;;;;5069349;28;20063;-71
2021/05/01 01:58:56;;;;;;;16.48;6.63;;;;;;;;;;5069099;28;20205;-70
2021/05/01 02:01:22;;;;;;;13.77;6.10;;;;;;;;;;5069370;28;20020;-70
2021/05/01 02:03:48;;;;;;;17.60;6.50;;;;;;;;;;5062666;28;20016;-71
2021/05/01 02:06:16;;;;;;;21.70;6.88;;;;;;;;;;5060154;28;20045;-71
2021/05/01 02:08:43;;;;;;;16.45;6.55;;;;;;;;;;5053270;28;20039;-71
2021/05/01 02:11:09;;;;;;;14.57;6.72;;;;;;;;;;5067065;28;20017;-71
2021/05/01 02:13:35;;;;;;;11.82;6.57;;;;;;;;;;5067260;28;20033;-71
2021/05/01 02:16:01;;;;;;;11.40;6.22;;;;;;;;;;5071428;28;20033;-71
2021/05/01 02:18:27;;;;;;;19.73;6.47;;;;;;;;;;5070118;28;20035;-71
2021/05/01 02:20:53;;;;;;;14.63;7.03;;;;;;;;;;5071467;28;20035;-71
2021/05/01 02:23:19;;;;;;;10.82;6.70;;;;;;;;;;5068655;28;20035;-71
2021/05/01 02:25:45;;;;;;;12.43;6.43;;;;;;;;;;5069934;28;20098;-71
2021/05/01 02:28:11;;;;;;;12.60;7.63;;;;;;;;;;5068807;28;20025;-71
2021/05/01 02:30:37;;;;;;;12.93;6.90;;;;;;;;;;5069548;28;20028;-71
2021/05/01 02:33:03;;;;;;;13.00;7.05;;;;;;;;;;5070343;28;20027;-71
2021/05/01 02:35:31;;;;;;;13.38;7.15;;;;;;;;;;5069497;28;20017;-71
2021/05/01 02:37:57;;;;;;;23.27;7.85;;;;;;;;;;5076839;28;20032;-71
2021/05/01 02:40:24;;;;;;;12.13;6.57;;;;;;;;;;5068552;28;20035;-71
2021/05/01 02:42:50;;;;;;;14.93;7.53;;;;;;;;;;5069207;28;20013;-71
2021/05/01 02:45:17;;;;;;;14.43;7.07;;;;;;;;;;5068727;28;20044;-71
2021/05/01 02:47:44;;;;;;;14.25;7.18;;;;;;;;;;5063834;28;20025;-71
2021/05/01 02:50:10;;;;;;;15.00;7.88;;;;;;;;;;5068775;28;20025;-71
2021/05/01 02:52:37;;;;;;;17.52;7.93;;;;;;;;;;5069824;28;20028;-71
2021/05/01 02:55:04;;;;;;;19.30;8.43;;;;;;;;;;5069258;28;20024;-70
2021/05/01 02:57:30;;;;;;;18.27;8.38;;;;;;;;;;5069749;28;20608;-71
2021/05/01 03:00:02;;;;;;;12.73;7.45;;;;;;;;;;5059209;28;20017;-71
2021/05/01 03:02:28;;;;;;;17.15;8.10;;;;;;;;;;5067027;28;20075;-71
2021/05/01 03:04:54;;;;;;;15.43;8.20;;;;;;;;;;5071389;28;20027;-71
2021/05/01 03:07:20;;;;;;;17.27;8.32;;;;;;;;;;5071986;28;20056;-70
2021/05/01 03:09:47;;;;;;;15.63;7.63;;;;;;;;;;5067705;28;20107;-71
2021/05/01 03:12:13;;;;;;;18.27;8.25;;;;;;;;;;5073541;28;20039;-71
2021/05/01 03:14:39;;;;;;;13.18;9.10;;;;;;;;;;5072037;28;20032;-71
2021/05/01 03:17:05;;;;;;;12.05;7.10;;;;;;;;;;5071525;28;20024;-70
2021/05/01 03:19:31;;;;;;;12.43;7.43;;;;;;;;;;5066693;28;20035;-71
2021/05/01 03:21:58;;;;;;;14.77;8.02;;;;;;;;;;5079271;28;20602;-71
2021/05/01 03:24:24;;;;;;;14.90;8.50;;;;;;;;;;5071511;28;20056;-71
2021/05/01 03:26:50;;;;;;;17.52;8.15;;;;;;;;;;5070423;28;20028;-71
2021/05/01 03:29:16;;;;;;;17.90;8.93;;;;;;;;;;5071623;28;20058;-71
2021/05/01 03:31:42;;;;;;;12.07;7.93;;;;;;;;;;5072841;28;20067;-71
2021/05/01 03:34:08;;;;;;;18.95;9.27;;;;;;;;;;5070903;28;20020;-71
2021/05/01 03:36:34;;;;;;;19.33;10.18;;;;;;;;;;5072599;28;20081;-71
2021/05/01 03:39:00;;;;;;;18.98;10.25;;;;;;;;;;5069896;28;20535;-71
2021/05/01 03:41:26;;;;;;;16.08;10.38;;;;;;;;;;5069467;28;20051;-71
2021/05/01 03:43:52;;;;;;;16.90;9.77;;;;;;;;;;5076492;28;20062;-71
2021/05/01 03:46:18;;;;;;;16.73;9.50;;;;;;;;;;5072139;28;20024;-71
2021/05/01 03:48:44;;;;;;;18.85;10.63;;;;;;;;;;5071908;28;20094;-71
2021/05/01 03:51:10;;;;;;;18.85;9.93;;;;;;;;;;5068418;28;20047;-71
2021/05/01 03:53:36;;;;;;;19.52;11.00;;;;;;;;;;5071171;28;20055;-71
2021/05/01 03:56:03;;;;;;;22.08;11.98;;;;;;;;;;5071494;28;20028;-71
2021/05/01 03:58:29;;;;;;;22.80;12.10;;;;;;;;;;5072340;28;20028;-71
2021/05/01 04:00:55;;;;;;;20.02;12.70;;;;;;;;;;5086461;28;20090;-71
2021/05/01 04:03:21;;;;;;;20.77;12.18;;;;;;;;;;5073287;28;20532;-71
2021/05/01 04:05:47;;;;;;;22.67;11.65;;;;;;;;;;5062532;28;20016;-71
2021/05/01 04:08:13;;;;;;;21.27;13.02;;;;;;;;;;5072117;28;20048;-71
2021/05/01 04:10:39;;;;;;;23.25;13.55;;;;;;;;;;5069493;28;20024;-71
2021/05/01 04:13:05;;;;;;;21.75;12.48;;;;;;;;;;5071761;28;20048;-71
2021/05/01 04:15:31;;;;;;;25.08;14.05;;;;;;;;;;5071726;28;20035;-71
2021/05/01 04:17:57;;;;;;;22.33;14.77;;;;;;;;;;5067127;28;20060;-71
2021/05/01 04:20:23;;;;;;;22.13;14.40;;;;;;;;;;5071061;28;20025;-71
2021/05/01 04:22:49;;;;;;;24.98;15.27;;;;;;;;;;5071531;28;20608;-71
2021/05/01 04:25:16;;;;;;;25.35;15.38;;;;;;;;;;5073512;28;20036;-72
2021/05/01 04:27:42;;;;;;;27.13;14.07;;;;;;;;;;5072075;28;20035;-71
2021/05/01 04:30:08;;;;;;;20.00;13.98;;;;;;;;;;5068783;28;20079;-71
2021/05/01 04:32:35;;;;;;;24.60;15.30;;;;;;;;;;5071379;28;20067;-71
2021/05/01 04:35:01;;;;;;;27.95;15.00;;;;;;;;;;5070171;28;20064;-71
2021/05/01 04:37:27;;;;;;;21.38;15.23;;;;;;;;;;5071123;28;20033;-71
2021/05/01 04:39:53;;;;;;;25.80;16.42;;;;;;;;;;5070684;28;20071;-71
2021/05/01 04:42:19;;;;;;;22.45;15.75;;;;;;;;;;5071142;28;20054;-71
2021/05/01 04:44:45;;;;;;;26.33;17.10;;;;;;;;;;5069496;28;20021;-71
2021/05/01 04:47:11;;;;;;;27.45;17.33;;;;;;;;;;5061762;28;20483;-71
2021/05/01 04:49:41;;;;;;;27.58;17.23;;;;;;;;;;5060939;28;20029;-73
2021/05/01 04:52:07;;;;;;;30.73;16.60;;;;;;;;;;5063963;28;20056;-71
2021/05/01 04:54:33;;;;;;;27.58;17.75;;;;;;;;;;5062244;28;20028;-71
2021/05/01 04:56:59;;;;;;;34.42;18.13;;;;;;;;;;5063808;28;20040;-71
2021/05/01 04:59:25;;;;;;;28.58;18.50;;;;;;;;;;5067181;28;20036;-72
2021/05/01 05:01:51;;;;;;;28.20;18.60;;;;;;;;;;5068714;28;20490;-72
2021/05/01 05:04:17;;;;;;;30.52;18.27;;;;;;;;;;5059458;28;20016;-71
2021/05/01 05:06:43;;;;;;;26.15;17.13;;;;;;;;;;5064691;28;20110;-71
2021/05/01 05:09:09;;;;;;;29.25;16.80;;;;;;;;;;5065234;28;20021;-71
2021/05/01 05:11:35;;;;;;;30.48;17.45;;;;;;;;;;5063596;28;20517;-71
2021/05/01 05:14:01;;;;;;;28.60;17.52;;;;;;;;;;5069082;28;20032;-71
2021/05/01 05:16:28;;;;;;;28.98;18.75;;;;;;;;;;5067775;28;20028;-71
2021/05/01 05:18:56;;;;;;;28.63;17.58;;;;;;;;;;5083056;28;20028;-72
2021/05/01 05:21:22;;;;;;;29.30;17.10;;;;;;;;;;5069454;28;20021;-72
2021/05/01 05:23:48;;;;;;;30.58;18.20;;;;;;;;;;5070077;28;20048;-72
2021/05/01 05:26:15;;;;;;;26.55;17.77;;;;;;;;;;5068564;28;20119;-71
2021/05/01 05:28:41;;;;;;;30.50;19.17;;;;;;;;;;5068601;28;20066;-72
2021/05/01 05:31:07;;;;;;;26.40;18.50;;;;;;;;;;5063169;28;20032;-72
2021/05/01 05:33:33;;;;;;;28.75;17.90;;;;;;;;;;5070121;28;20028;-72
2021/05/01 05:35:59;;;;;;;29.60;18.08;;;;;;;;;;5067400;28;20067;-71
2021/05/01 05:38:25;;;;;;;29.08;18.77;;;;;;;;;;5070497;28;20028;-72
2021/05/01 05:40:51;;;;;;;30.27;20.00;;;;;;;;;;5068052;28;20081;-72
2021/05/01 05:43:18;;;;;;;28.13;18.85;;;;;;;;;;5066271;28;20078;-72
2021/05/01 05:45:46;;;;;;;29.40;18.23;;;;;;;;;;5068193;28;20024;-72
2021/05/01 05:48:12;;;;;;;26.90;18.23;;;;;;;;;;5065463;28;20024;-72
2021/05/01 05:50:38;;;;;;;28.80;18.48;;;;;;;;;;5069651;28;20035;-72
2021/05/01 05:53:05;;;;;;;27.65;19.27;;;;;;;;;;5067449;28;20004;-72
2021/05/01 05:55:31;;;;;;;27.40;18.70;;;;;;;;;;5065655;28;20029;-72
2021/05/01 05:57:57;;;;;;;29.88;21.35;;;;;;;;;;5066997;28;20033;-72
2021/05/01 06:00:25;;;;;;;33.50;19.55;;;;;;;;;;5065025;28;20842;-71
2021/05/01 06:02:52;;;;;;;20.00;12.25;;;;;;;;;;5068742;28;20054;-70
2021/05/01 06:05:28;;;;;;;19.42;10.10;;;;;;;;;;5065985;28;20024;-71
2021/05/01 06:08:01;;;;;;;14.73;8.10;;;;;;;;;;5066441;28;20387;-71
2021/05/01 06:10:29;;;;;;;15.95;8.18;;;;;;;;;;5067251;28;20031;-71
2021/05/01 06:12:56;;;;;;;16.17;7.65;;;;;;;;;;5069075;28;20033;-71
2021/05/01 06:15:22;;;;;;;11.25;5.88;;;;;;;;;;5067138;28;20032;-71
2021/05/01 06:17:49;;;;;;;9.48;5.82;;;;;;;;;;5068729;28;20067;-71
2021/05/01 06:20:16;;;;;;;11.23;5.32;;;;;;;;;;5067798;28;20074;-71
2021/05/01 06:22:42;;;;;;;12.10;5.57;;;;;;;;;;5069262;28;20021;-71
2021/05/01 06:25:10;;;;;;;14.63;6.38;;;;;;;;;;5069798;28;20025;-71
2021/05/01 06:27:36;;;;;;;14.45;6.30;;;;;;;;;;5069721;28;20032;-71
2021/05/01 06:30:04;;;;;;;12.13;6.10;;;;;;;;;;5068511;28;20138;-71
2021/05/01 06:32:30;;;;;;;32.00;9.98;;;;;;;;;;5069658;28;20491;-72
2021/05/01 06:34:57;;;;;;;18.92;7.60;;;;;;;;;;5064487;28;20025;-71
2021/05/01 06:37:24;;;;;;;24.98;8.70;;;;;;;;;;5062063;28;20102;-71
2021/05/01 06:39:51;;;;;;;26.08;9.10;;;;;;;;;;5069016;28;20052;-70
2021/05/01 06:42:19;;;;;;;21.20;9.65;;;;;;;;;;5073241;28;20073;-71
2021/05/01 06:44:55;;;;;;;17.88;9.82;;;;;;;;;;5069403;28;20017;-71
2021/05/01 06:47:31;;;;;;;15.13;8.50;;;;;;;;;;5068674;28;20033;-71
2021/05/01 06:49:57;;;;;;;15.40;9.32;;;;;;;;;;5059419;28;20024;-71
2021/05/01 06:52:24;;;;;;;16.50;9.27;;;;;;;;;;5073716;28;20446;-70
2021/05/01 06:54:51;;;;;;;16.50;9.50;;;;;;;;;;5069245;28;20052;-69
2021/05/01 06:57:21;;;;;;;14.32;8.23;;;;;;;;;;5071549;28;20098;-70
2021/05/01 06:59:50;;;;;;;16.77;8.27;;;;;;;;;;5070573;28;20043;-70
2021/05/01 07:02:16;;;;;;;17.15;8.35;;;;;;;;;;5071649;28;20028;-71
2021/05/01 07:04:43;;;;;;;11.63;7.55;;;;;;;;;;5073339;28;20052;-71
2021/05/01 07:07:09;;;;;;;10.25;6.93;;;;;;;;;;5066713;28;20079;-71
2021/05/01 07:09:37;;;;;;;13.18;7.05;;;;;;;;;;5070462;28;20123;-70
2021/05/01 07:12:03;;;;;;;13.35;6.60;;;;;;;;;;5072462;28;20025;-71
2021/05/01 07:14:30;;;;;;;13.93;7.65;;;;;;;;;;5070347;28;20471;-71
2021/05/01 07:16:56;;;;;;;12.50;7.70;;;;;;;;;;5067057;28;20035;-71
2021/05/01 07:19:22;;;;;;;14.95;7.20;;;;;;;;;;5070315;28;20028;-71
2021/05/01 07:21:48;;;;;;;15.95;7.53;;;;;;;;;;5064979;28;20074;-71
2021/05/01 07:24:14;;;;;;;15.30;7.15;;;;;;;;;;5073313;28;20020;-71
2021/05/01 07:26:41;;;;;;;12.68;6.63;;;;;;;;;;5071222;28;20028;-71
2021/05/01 07:29:08;;;;;;;12.52;6.88;;;;;;;;;;5072491;28;20041;-70
2021/05/01 07:31:38;;;;;;;14.05;6.80;;;;;;;;;;5071301;28;20063;-71
2021/05/01 07:34:07;;;;;;;12.95;5.82;;;;;;;;;;5071588;28;20476;-70
2021/05/01 07:36:42;;;;;;;16.10;6.13;;;;;;;;;;5071667;28;20089;-70
2021/05/01 07:39:11;;;;;;;14.15;5.65;;;;;;;;;;5069714;28;20052;-70
2021/05/01 07:41:42;;;;;;;13.65;5.97;;;;;;;;;;5071090;28;20035;-70
2021/05/01 07:44:08;;;;;;;14.95;7.25;;;;;;;;;;5069727;28;20261;-70
2021/05/01 07:46:37;;;;;;;9.93;5.32;;;;;;;;;;5077456;28;20120;-71
2021/05/01 07:49:03;;;;;;;14.07;6.45;;;;;;;;;;5066423;28;20043;-70
2021/05/01 07:51:29;;;;;;;12.65;5.68;;;;;;;;;;5071031;28;20036;-70
2021/05/01 07:53:55;;;;;;;12.77;5.28;;;;;;;;;;5057596;28;20048;-71
2021/05/01 07:56:21;;;;;;;12.90;5.35;;;;;;;;;;5073527;28;20033;-70
2021/05/01 07:58:47;;;;;;;17.63;6.25;;;;;;;;;;5069589;28;20048;-70
2021/05/01 08:01:13;;;;;;;13.27;6.25;;;;;;;;;;5070928;28;20017;-71
2021/05/01 08:03:40;;;;;;;12.00;6.25;;;;;;;;;;5069774;28;20127;-71
2021/05/01 08:06:06;;;;;;;15.82;7.00;;;;;;;;;;5071113;28;20038;-69
2021/05/01 08:08:32;;;;;;;15.85;6.80;;;;;;;;;;5072298;28;20048;-73
2021/05/01 08:10:58;;;;;;;11.10;5.93;;;;;;;;;;5069892;28;20055;-70
2021/05/01 08:13:24;;;;;;;13.20;6.70;;;;;;;;;;5065721;28;20028;-72
2021/05/01 08:15:50;;;;;;;11.52;6.30;;;;;;;;;;5070577;28;20044;-71
2021/05/01 08:18:16;;;;;;;10.70;6.85;;;;;;;;;;5066392;28;20095;-72
2021/05/01 08:20:42;;;;;;;10.88;6.78;;;;;;;;;;5067452;28;20024;-72
2021/05/01 08:23:08;;;;;;;14.38;6.47;;;;;;;;;;5064392;28;20052;-71
2021/05/01 08:25:35;;;;;;;13.25;6.40;;;;;;;;;;5069586;28;20509;-72
2021/05/01 08:28:01;;;;;;;45.50;8.88;;;;;;;;;;5067840;28;20091;-71
2021/05/01 08:30:28;;;;;;;14.18;7.50;;;;;;;;;;5068874;28;20027;-72
2021/05/01 08:32:54;;;;;;;79.80;12.82;;;;;;;;;;5062418;28;20025;-71
2021/05/01 08:35:20;;;;;;;117.30;19.67;;;;;;;;;;5067185;28;20044;-70
2021/05/01 08:37:47;;;;;;;10.90;5.88;;;;;;;;;;5064518;28;20047;-71
2021/05/01 08:40:13;;;;;;;96.63;17.33;;;;;;;;;;5058842;28;20410;-71
2021/05/01 08:42:48;;;;;;;10.93;6.03;;;;;;;;;;5067701;28;20451;-70
2021/05/01 08:45:24;;;;;;;11.88;6.50;;;;;;;;;;5068947;28;20510;-71
2021/05/01 08:47:50;;;;;;;195.40;27.92;;;;;;;;;;5062703;28;20034;-71
2021/05/01 08:50:31;;;;;;;20.13;6.50;;;;;;;;;;5062822;28;20047;-71
2021/05/01 08:52:58;;;;;;;10.75;5.03;;;;;;;;;;5064024;28;20103;-70
2021/05/01 08:55:29;;;;;;;363.50;52.75;;;;;;;;;;5068416;28;20075;-70
2021/05/01 08:57:55;;;;;;;53.53;11.70;;;;;;;;;;5067970;28;20035;-70
2021/05/01 09:00:22;;;;;;;21.77;7.22;;;;;;;;;;5063080;28;20090;-71
2021/05/01 09:02:49;;;;;;;254.57;41.88;;;;;;;;;;5067437;28;20036;-71
2021/05/01 09:05:15;;;;;;;13.50;5.13;;;;;;;;;;5066892;28;20020;-70
2021/05/01 09:07:45;;;;;;;105.80;18.80;;;;;;;;;;5063302;28;20385;-71
2021/05/01 09:10:12;;;;;;;27.13;6.82;;;;;;;;;;5062897;28;20097;-70
2021/05/01 09:12:39;;;;;;;13.88;5.50;;;;;;;;;;5063980;28;20129;-71
2021/05/01 09:15:07;;;;;;;15.68;5.10;;;;;;;;;;5063610;28;20032;-72
2021/05/01 09:17:33;;;;;;;11.55;4.90;;;;;;;;;;5059493;28;20047;-71
2021/05/01 09:20:07;;;;;;;11.50;4.63;;;;;;;;;;5057896;28;20025;-70
2021/05/01 09:22:35;;;;;;;10.23;5.38;;;;;;;;;;5067344;28;20024;-71
2021/05/01 09:25:06;;;;;;;10.80;4.32;;;;;;;;;;5062607;28;20064;-70
2021/05/01 09:27:32;;;;;;;16.98;4.30;;;;;;;;;;5066356;28;20056;-71
2021/05/01 09:30:11;;;;;;;25.30;6.13;;;;;;;;;;5059336;28;20074;-71
2021/05/01 09:32:37;;;;;;;142.60;21.55;;;;;;;;;;5064422;28;20040;-71
2021/05/01 09:35:04;;;;;;;206.40;25.15;;;;;;;;;;5062602;28;20574;-71
2021/05/01 09:37:31;;;;;;;42.05;8.85;;;;;;;;;;5057927;28;20028;-70
2021/05/01 09:39:59;;;;;;;87.63;15.27;;;;;;;;;;5061590;28;20017;-70
2021/05/01 09:42:28;;;;;;;11.77;4.82;;;;;;;;;;5066067;28;20104;-70
2021/05/01 09:45:10;;;;;;;175.95;27.85;;;;;;;;;;5064523;28;20021;-71
2021/05/01 09:47:37;;;;;;;135.05;19.45;;;;;;;;;;5060468;28;20040;-70
2021/05/01 09:50:18;;;;;;;19.23;6.22;;;;;;;;;;5053401;28;20031;-70
2021/05/01 09:52:57;;;;;;;62.83;10.55;;;;;;;;;;5056517;28;20502;-70
2021/05/01 09:55:42;;;;;;;18.20;5.25;;;;;;;;;;5063390;28;20037;-70
2021/05/01 09:58:14;;;;;;;10.88;5.18;;;;;;;;;;5058481;28;20031;-71
2021/05/01 10:00:40;;;;;;;20.92;5.85;;;;;;;;;;5064102;28;20032;-71
2021/05/01 10:03:19;;;;;;;28.52;6.78;;;;;;;;;;5066376;28;20017;-71
2021/05/01 10:05:46;;;;;;;11.95;4.47;;;;;;;;;;5065662;28;20100;-71
2021/05/01 10:08:13;;;;;;;26.08;6.15;;;;;;;;;;5066640;28;20089;-71
2021/05/01 10:10:40;;;;;;;15.00;5.07;;;;;;;;;;5065221;28;20028;-70
2021/05/01 10:13:06;;;;;;;72.22;11.32;;;;;;;;;;5067779;28;20033;-71
2021/05/01 10:15:33;;;;;;;11.73;4.07;;;;;;;;;;5062635;28;20055;-71
2021/05/01 10:18:20;;;;;;;16.73;4.68;;;;;;;;;;5065293;28;20060;-71
2021/05/01 10:20:48;;;;;;;7.57;4.00;;;;;;;;;;5071052;28;20016;-71
2021/05/01 10:23:15;;;;;;;11.75;3.97;;;;;;;;;;5066495;28;20021;-71
2021/05/01 10:25:42;;;;;;;10.15;3.65;;;;;;;;;;5064728;28;20496;-71
2021/05/01 10:28:15;;;;;;;7.88;3.22;;;;;;;;;;5063305;28;20483;-71
2021/05/01 10:30:44;;;;;;;9.43;3.78;;;;;;;;;;5060239;28;20047;-70
2021/05/01 10:33:37;;;;;;;10.80;3.78;;;;;;;;;;5062147;28;20032;-70
2021/05/01 10:36:11;;;;;;;9.82;3.42;;;;;;;;;;5055053;28;20491;-70
2021/05/01 10:38:38;;;;;;;8.70;3.22;;;;;;;;;;5064419;28;20043;-71
2021/05/01 10:41:05;;;;;;;7.35;2.45;;;;;;;;;;5060101;28;20013;-70
2021/05/01 10:43:32;;;;;;;6.78;2.85;;;;;;;;;;5064784;28;20029;-71
2021/05/01 10:46:05;;;;;;;7.45;2.90;;;;;;;;;;5053610;28;20119;-72
2021/05/01 10:48:31;;;;;;;7.50;3.42;;;;;;;;;;5055785;28;20107;-72
2021/05/01 10:51:11;;;;;;;10.35;3.50;;;;;;;;;;5066434;28;20086;-71
2021/05/01 10:53:38;;;;;;;8.20;3.33;;;;;;;;;;5059624;28;20060;-69
2021/05/01 10:56:05;;;;;;;9.23;3.17;;;;;;;;;;5064566;28;20383;-72
2021/05/01 10:58:33;;;;;;;11.38;3.40;;;;;;;;;;5065474;28;20087;-71
2021/05/01 11:00:59;;;;;;;7.88;3.85;;;;;;;;;;5059771;28;20031;-71
2021/05/01 11:03:26;;;;;;;6.65;3.40;;;;;;;;;;5068788;28;20025;-71
2021/05/01 11:05:53;;;;;;;7.00;2.97;;;;;;;;;;5053845;28;20032;-72
2021/05/01 11:08:22;;;;;;;7.40;3.90;;;;;;;;;;5064440;28;20066;-72
2021/05/01 11:10:51;;;;;;;10.05;3.78;;;;;;;;;;5062526;28;20078;-72
2021/05/01 11:13:24;;;;;;;8.93;4.07;;;;;;;;;;5061795;28;20086;-72
2021/05/01 11:15:51;;;;;;;13.27;3.55;;;;;;;;;;5061044;28;20036;-72
2021/05/01 11:18:21;;;;;;;8.73;3.35;;;;;;;;;;5058412;28;20028;-71
2021/05/01 11:20:47;;;;;;;7.75;3.17;;;;;;;;;;5055151;28;20025;-71
2021/05/01 11:23:16;;;;;;;7.65;3.17;;;;;;;;;;5059384;28;20032;-72
2021/05/01 11:25:43;;;;;;;9.15;3.33;;;;;;;;;;5066723;28;20039;-72
2021/05/01 11:28:13;;;;;;;10.57;3.33;;;;;;;;;;5064370;28;20096;-71
2021/05/01 11:30:40;;;;;;;7.60;3.17;;;;;;;;;;5060037;28;20163;-71
2021/05/01 11:33:08;;;;;;;7.72;3.47;;;;;;;;;;5066883;28;20021;-71
2021/05/01 11:35:35;;;;;;;9.50;3.42;;;;;;;;;;5066092;28;20032;-71
2021/05/01 11:38:04;;;;;;;11.27;3.72;;;;;;;;;;5061889;28;20036;-71
2021/05/01 11:40:31;;;;;;;11.15;3.72;;;;;;;;;;5056227;28;20031;-71
2021/05/01 11:42:58;;;;;;;7.72;2.63;;;;;;;;;;5059551;28;20025;-71
2021/05/01 11:45:26;;;;;;;10.02;3.03;;;;;;;;;;5053539;28;20063;-73
2021/05/01 11:47:53;;;;;;;8.60;3.28;;;;;;;;;;5060712;28;20467;-72
2021/05/01 11:50:20;;;;;;;6.68;3.00;;;;;;;;;;5058104;28;20086;-72
2021/05/01 11:53:06;;;;;;;7.30;3.20;;;;;;;;;;5067405;28;20058;-72
2021/05/01 11:55:33;;;;;;;7.32;3.17;;;;;;;;;;5062270;28;20025;-72
2021/05/01 11:58:03;;;;;;;8.68;3.00;;;;;;;;;;5067944;28;20033;-73
2021/05/01 12:00:36;;;;;;;7.05;2.60;;;;;;;;;;5059507;28;20024;-72
2021/05/01 12:03:03;;;;;;;7.28;3.13;;;;;;;;;;5067932;28;20021;-72
2021/05/01 12:05:35;;;;;;;7.88;3.78;;;;;;;;;;5067981;28;20035;-72
2021/05/01 12:08:01;;;;;;;6.30;2.58;;;;;;;;;;5021549;28;20037;-71
2021/05/01 12:10:27;;;;;;;9.63;3.63;;;;;;;;;;5019066;28;20026;-72
2021/05/01 12:13:12;;;;;;;7.95;2.75;;;;;;;;;;5022266;28;20045;-72
2021/05/01 12:15:41;;;;;;;6.75;2.58;;;;;;;;;;5019339;28;20025;-72
2021/05/01 12:18:07;;;;;;;6.90;2.70;;;;;;;;;;5026560;28;20025;-73
2021/05/01 12:20:36;;;;;;;7.30;2.78;;;;;;;;;;5014777;28;20208;-72
2021/05/01 12:23:10;;;;;;;6.20;2.40;;;;;;;;;;5020274;28;20034;-72
2021/05/01 12:25:48;;;;;;;8.05;2.65;;;;;;;;;;5020711;28;20018;-72
2021/05/01 12:28:14;;;;;;;8.20;2.67;;;;;;;;;;5014312;28;20033;-72
2021/05/01 12:30:40;;;;;;;6.38;2.30;;;;;;;;;;5026259;28;20025;-73
2021/05/01 12:33:24;;;;;;;6.90;2.30;;;;;;;;;;5020221;28;20029;-73
2021/05/01 12:35:55;;;;;;;8.77;3.28;;;;;;;;;;5029627;28;20033;-72
2021/05/01 12:38:23;;;;;;;7.93;2.90;;;;;;;;;;5014925;28;20033;-72
2021/05/01 12:40:49;;;;;;;7.47;2.70;;;;;;;;;;5018188;28;20026;-71
2021/05/01 12:43:30;;;;;;;7.75;2.65;;;;;;;;;;5017466;28;20084;-71
2021/05/01 12:45:57;;;;;;;10.48;2.90;;;;;;;;;;5020427;28;20061;-71
2021/05/01 12:48:47;;;;;;;6.50;3.10;;;;;;;;;;5017843;28;20385;-71
2021/05/01 12:51:14;;;;;;;5.68;2.38;;;;;;;;;;5015003;28;20041;-71
2021/05/01 12:53:43;;;;;;;9.63;2.65;;;;;;;;;;5028852;28;20566;-72
2021/05/01 12:56:22;;;;;;;6.18;2.28;;;;;;;;;;5018861;28;20022;-68
2021/05/01 12:58:48;;;;;;;8.73;2.58;;;;;;;;;;5016754;28;20050;-71
2021/05/01 13:01:25;;;;;;;7.68;2.75;;;;;;;;;;5028245;28;20025;-72
2021/05/01 13:04:21;;;;;;;9.75;3.05;;;;;;;;;;5023233;28;20080;-72
2021/05/01 13:06:51;;;;;;;8.45;2.60;;;;;;;;;;5033350;28;20075;-71
2021/05/01 13:09:20;;;;;;;7.25;3.15;;;;;;;;;;5056096;28;20051;-72
2021/05/01 13:12:05;;;;;;;10.52;3.35;;;;;;;;;;5061037;28;20024;-72
2021/05/01 13:14:32;;;;;;;6.63;3.15;;;;;;;;;;5060413;28;20028;-72
2021/05/01 13:16:58;;;;;;;6.70;2.55;;;;;;;;;;5058306;28;20067;-72
2021/05/01 13:19:28;;;;;;;8.15;3.55;;;;;;;;;;5054443;28;20395;-72
2021/05/01 13:21:59;;;;;;;9.27;2.97;;;;;;;;;;5058351;28;20059;-71
2021/05/01 13:24:28;;;;;;;6.50;3.22;;;;;;;;;;5057754;28;20032;-70
2021/05/01 13:26:55;;;;;;;6.88;2.95;;;;;;;;;;5059003;28;20120;-73
2021/05/01 13:29:40;;;;;;;5.18;2.53;;;;;;;;;;5057631;28;20083;-72
2021/05/01 13:32:08;;;;;;;11.55;3.30;;;;;;;;;;5060420;28;20033;-72
2021/05/01 13:34:34;;;;;;;8.85;3.15;;;;;;;;;;5057437;28;20147;-71
2021/05/01 13:37:00;;;;;;;10.60;3.13;;;;;;;;;;5060577;28;20024;-71
2021/05/01 13:39:30;;;;;;;6.75;3.20;;;;;;;;;;5054856;28;20116;-71
2021/05/01 13:42:02;;;;;;;9.30;2.92;;;;;;;;;;5058936;28;20757;-72
2021/05/01 13:44:47;;;;;;;5.82;2.88;;;;;;;;;;5057396;28;20028;-73
2021/05/01 13:47:17;;;;;;;8.27;2.72;;;;;;;;;;5057440;28;20396;-72
2021/05/01 13:49:43;;;;;;;7.45;2.97;;;;;;;;;;5052513;28;20555;-73
2021/05/01 13:52:10;;;;;;;7.40;2.75;;;;;;;;;;5063417;28;20040;-71
2021/05/01 13:54:36;;;;;;;10.48;2.90;;;;;;;;;;5059440;28;20033;-72
2021/05/01 13:57:09;;;;;;;10.07;3.20;;;;;;;;;;5057660;28;20035;-72
2021/05/01 13:59:35;;;;;;;7.28;2.33;;;;;;;;;;5049431;28;20368;-72
2021/05/01 14:02:02;;;;;;;6.90;2.50;;;;;;;;;;5057922;28;20017;-70
2021/05/01 14:04:31;;;;;;;6.60;2.85;;;;;;;;;;5056591;28;20111;-72
2021/05/01 14:06:57;;;;;;;8.95;2.50;;;;;;;;;;5057975;28;20124;-72
2021/05/01 14:09:25;;;;;;;8.02;3.22;;;;;;;;;;5054472;28;20068;-71
2021/05/01 14:11:51;;;;;;;7.00;2.85;;;;;;;;;;5057353;28;20025;-71
2021/05/01 14:14:20;;;;;;;9.23;2.90;;;;;;;;;;5058551;28;20031;-72
2021/05/01 14:16:57;;;;;;;7.95;3.00;;;;;;;;;;5053585;28;20078;-71
2021/05/01 14:19:24;;;;;;;8.32;2.72;;;;;;;;;;5054307;28;20111;-71
2021/05/01 14:21:54;;;;;;;6.22;2.42;;;;;;;;;;5053644;28;20025;-72
2021/05/01 14:24:20;;;;;;;5.80;3.10;;;;;;;;;;5054490;28;20140;-73
2021/05/01 14:26:49;;;;;;;6.30;2.47;;;;;;;;;;5060731;28;20025;-73
2021/05/01 14:29:15;;;;;;;7.75;2.70;;;;;;;;;;5053708;28;20114;-72
2021/05/01 14:31:41;;;;;;;5.93;2.63;;;;;;;;;;5052703;28;20043;-71
2021/05/01 14:34:09;;;;;;;6.32;2.83;;;;;;;;;;5061130;28;20025;-71
2021/05/01 14:36:35;;;;;;;5.43;2.58;;;;;;;;;;5056633;28;20500;-70